WIII/CGK METAR and TAF weather

Enter ICAO airport designator
Station Type Date Time Source
WIII METAR 2021/02/27 03:30 UTC NOAA

WIII 270330Z VRB04KT 7000 FEW022 30/24 Q1009 NOSIG


Station Type Date Time Source
WIII Decoded METAR 2021/02/27 03:30 UTC NOAA

Jakarta / Soekarno-Hatta, Indonesia (WIII) 06-07S 106-39E 8M
Feb 26, 2021 - 10:30 PM EST / 2021.02.27 0330 UTC
Wind: Variable at 5 MPH (4 KT):0
Visibility: 4 mile(s):0
Sky conditions: mostly clear
Temperature: 86 F (30 C)
Heat index: 95.0 F (35.0 C):1
Dew Point: 75 F (24 C)
Relative Humidity: 70%
Pressure (altimeter): 29.80 in. Hg (1009 hPa)
ob: WIII 270330Z VRB04KT 7000 FEW022 30/24 Q1009 NOSIG
cycle: 3

Station Type Date Time Source
WIII TAF 2021/02/26 18:42 UTC NOAA

TAF COR TAF WIII 261700Z 2618/2724 05005KT 8000 SCT020
TEMPO 2618/2622 4000 TSRA FEW018CB BKN020
BECMG 2701/2703 31010KT 9000

Example: see airport list